sensor_id;sensor_type;location;lat;lon;timestamp;P1;durP1;ratioP1;P2;durP2;ratioP2
72584;SDS011;60618;40.084;32.908;2022-12-10T00:01:08;39.53;;;15.85;;
72584;SDS011;60618;40.084;32.908;2022-12-10T00:03:37;37.08;;;16.08;;
72584;SDS011;60618;40.084;32.908;2022-12-10T00:06:05;39.30;;;17.83;;
72584;SDS011;60618;40.084;32.908;2022-12-10T00:08:34;40.40;;;15.50;;
72584;SDS011;60618;40.084;32.908;2022-12-10T00:11:02;36.33;;;15.43;;
72584;SDS011;60618;40.084;32.908;2022-12-10T00:13:30;30.40;;;13.00;;
72584;SDS011;60618;40.084;32.908;2022-12-10T00:16:00;23.92;;;10.90;;
72584;SDS011;60618;40.084;32.908;2022-12-10T00:18:28;29.30;;;12.60;;
72584;SDS011;60618;40.084;32.908;2022-12-10T00:20:55;26.88;;;11.93;;
72584;SDS011;60618;40.084;32.908;2022-12-10T00:23:22;42.97;;;17.03;;
72584;SDS011;60618;40.084;32.908;2022-12-10T00:25:49;40.92;;;16.23;;
72584;SDS011;60618;40.084;32.908;2022-12-10T00:28:16;33.22;;;13.60;;
72584;SDS011;60618;40.084;32.908;2022-12-10T00:30:43;44.97;;;18.08;;
72584;SDS011;60618;40.084;32.908;2022-12-10T00:33:10;45.92;;;19.23;;
72584;SDS011;60618;40.084;32.908;2022-12-10T00:35:45;37.10;;;16.67;;
72584;SDS011;60618;40.084;32.908;2022-12-10T00:38:11;39.42;;;16.35;;
72584;SDS011;60618;40.084;32.908;2022-12-10T00:40:38;50.85;;;19.38;;
72584;SDS011;60618;40.084;32.908;2022-12-10T00:43:05;53.05;;;22.20;;
72584;SDS011;60618;40.084;32.908;2022-12-10T00:45:32;42.83;;;17.77;;
72584;SDS011;60618;40.084;32.908;2022-12-10T00:47:59;33.73;;;14.87;;
72584;SDS011;60618;40.084;32.908;2022-12-10T00:50:26;48.35;;;17.85;;
72584;SDS011;60618;40.084;32.908;2022-12-10T00:52:53;36.58;;;15.82;;
72584;SDS011;60618;40.084;32.908;2022-12-10T00:55:20;36.67;;;16.13;;
72584;SDS011;60618;40.084;32.908;2022-12-10T00:57:47;41.95;;;17.70;;
72584;SDS011;60618;40.084;32.908;2022-12-10T01:00:14;46.20;;;20.80;;
72584;SDS011;60618;40.084;32.908;2022-12-10T01:02:41;46.95;;;20.50;;
72584;SDS011;60618;40.084;32.908;2022-12-10T01:05:08;42.88;;;19.27;;
72584;SDS011;60618;40.084;32.908;2022-12-10T01:07:35;47.55;;;20.88;;
72584;SDS011;60618;40.084;32.908;2022-12-10T01:10:02;49.38;;;20.90;;
72584;SDS011;60618;40.084;32.908;2022-12-10T01:12:30;47.43;;;21.00;;
72584;SDS011;60618;40.084;32.908;2022-12-10T01:14:57;40.83;;;17.25;;
72584;SDS011;60618;40.084;32.908;2022-12-10T01:17:24;44.95;;;18.73;;
72584;SDS011;60618;40.084;32.908;2022-12-10T01:19:51;47.80;;;19.63;;
72584;SDS011;60618;40.084;32.908;2022-12-10T01:22:18;46.85;;;19.33;;
72584;SDS011;60618;40.084;32.908;2022-12-10T01:24:45;48.00;;;20.37;;
72584;SDS011;60618;40.084;32.908;2022-12-10T01:27:12;55.10;;;23.30;;
72584;SDS011;60618;40.084;32.908;2022-12-10T01:29:39;60.45;;;24.20;;
72584;SDS011;60618;40.084;32.908;2022-12-10T01:32:06;68.55;;;25.15;;
72584;SDS011;60618;40.084;32.908;2022-12-10T01:34:33;54.80;;;23.40;;
72584;SDS011;60618;40.084;32.908;2022-12-10T01:37:00;51.13;;;21.13;;
72584;SDS011;60618;40.084;32.908;2022-12-10T01:39:26;50.95;;;22.15;;
72584;SDS011;60618;40.084;32.908;2022-12-10T01:41:54;58.25;;;25.23;;
72584;SDS011;60618;40.084;32.908;2022-12-10T01:46:51;80.07;;;32.20;;
72584;SDS011;60618;40.084;32.908;2022-12-10T01:49:20;58.60;;;24.03;;
72584;SDS011;60618;40.084;32.908;2022-12-10T01:51:59;49.67;;;21.40;;
72584;SDS011;60618;40.084;32.908;2022-12-10T01:54:27;42.03;;;17.77;;
72584;SDS011;60618;40.084;32.908;2022-12-10T01:56:59;38.75;;;14.82;;
72584;SDS011;60618;40.084;32.908;2022-12-10T01:59:30;37.20;;;15.90;;
72584;SDS011;60618;40.084;32.908;2022-12-10T02:02:02;39.13;;;15.97;;
72584;SDS011;60618;40.084;32.908;2022-12-10T02:09:58;62.20;;;24.58;;
72584;SDS011;60618;40.084;32.908;2022-12-10T02:14:59;59.93;;;23.47;;
72584;SDS011;60618;40.084;32.908;2022-12-10T02:17:41;52.03;;;22.13;;
72584;SDS011;60618;40.084;32.908;2022-12-10T02:20:26;36.80;;;16.00;;
72584;SDS011;60618;40.084;32.908;2022-12-10T02:23:18;55.25;;;22.60;;
72584;SDS011;60618;40.084;32.908;2022-12-10T02:26:09;71.00;;;28.52;;
72584;SDS011;60618;40.084;32.908;2022-12-10T02:28:51;78.60;;;31.80;;
72584;SDS011;60618;40.084;32.908;2022-12-10T02:31:33;66.15;;;27.27;;
72584;SDS011;60618;40.084;32.908;2022-12-10T02:34:02;62.25;;;25.30;;
72584;SDS011;60618;40.084;32.908;2022-12-10T02:36:33;56.55;;;22.35;;
72584;SDS011;60618;40.084;32.908;2022-12-10T02:39:05;46.85;;;20.13;;
72584;SDS011;60618;40.084;32.908;2022-12-10T02:41:44;51.23;;;20.13;;
72584;SDS011;60618;40.084;32.908;2022-12-10T02:44:16;56.47;;;22.38;;
72584;SDS011;60618;40.084;32.908;2022-12-10T02:46:46;65.43;;;24.38;;
72584;SDS011;60618;40.084;32.908;2022-12-10T02:49:16;51.90;;;22.15;;
72584;SDS011;60618;40.084;32.908;2022-12-10T02:51:44;68.97;;;26.00;;
72584;SDS011;60618;40.084;32.908;2022-12-10T02:57:07;50.47;;;20.52;;
72584;SDS011;60618;40.084;32.908;2022-12-10T03:05:18;38.60;;;16.88;;
72584;SDS011;60618;40.084;32.908;2022-12-10T03:08:13;50.17;;;18.27;;
72584;SDS011;60618;40.084;32.908;2022-12-10T03:11:15;45.42;;;20.77;;
72584;SDS011;60618;40.084;32.908;2022-12-10T03:13:38;62.15;;;24.73;;
72584;SDS011;60618;40.084;32.908;2022-12-10T03:16:16;58.67;;;25.17;;
72584;SDS011;60618;40.084;32.908;2022-12-10T03:18:46;47.22;;;19.50;;
72584;SDS011;60618;40.084;32.908;2022-12-10T03:21:16;50.13;;;19.17;;
72584;SDS011;60618;40.084;32.908;2022-12-10T03:23:45;45.75;;;18.75;;
72584;SDS011;60618;40.084;32.908;2022-12-10T03:26:15;48.22;;;20.17;;
72584;SDS011;60618;40.084;32.908;2022-12-10T03:28:46;47.60;;;18.55;;
72584;SDS011;60618;40.084;32.908;2022-12-10T03:31:19;41.15;;;17.30;;
72584;SDS011;60618;40.084;32.908;2022-12-10T03:33:47;45.07;;;19.43;;
72584;SDS011;60618;40.084;32.908;2022-12-10T03:36:16;53.03;;;22.20;;
72584;SDS011;60618;40.084;32.908;2022-12-10T03:38:45;52.13;;;21.92;;
72584;SDS011;60618;40.084;32.908;2022-12-10T03:41:12;49.20;;;20.83;;
72584;SDS011;60618;40.084;32.908;2022-12-10T03:43:52;46.78;;;18.25;;
72584;SDS011;60618;40.084;32.908;2022-12-10T03:46:25;42.57;;;16.80;;
72584;SDS011;60618;40.084;32.908;2022-12-10T03:48:54;40.75;;;16.33;;
72584;SDS011;60618;40.084;32.908;2022-12-10T03:51:22;54.33;;;21.20;;
72584;SDS011;60618;40.084;32.908;2022-12-10T03:53:49;48.85;;;21.70;;
72584;SDS011;60618;40.084;32.908;2022-12-10T03:56:16;58.63;;;22.80;;
72584;SDS011;60618;40.084;32.908;2022-12-10T03:58:44;41.30;;;17.03;;
72584;SDS011;60618;40.084;32.908;2022-12-10T04:01:11;55.47;;;22.45;;
72584;SDS011;60618;40.084;32.908;2022-12-10T04:03:39;100.75;;;53.90;;
72584;SDS011;60618;40.084;32.908;2022-12-10T04:06:08;58.00;;;25.77;;
72584;SDS011;60618;40.084;32.908;2022-12-10T04:08:38;53.40;;;24.73;;
72584;SDS011;60618;40.084;32.908;2022-12-10T04:11:05;60.57;;;23.37;;
72584;SDS011;60618;40.084;32.908;2022-12-10T04:13:35;57.88;;;23.88;;
72584;SDS011;60618;40.084;32.908;2022-12-10T04:16:02;60.72;;;23.42;;
72584;SDS011;60618;40.084;32.908;2022-12-10T04:18:29;65.70;;;25.35;;
72584;SDS011;60618;40.084;32.908;2022-12-10T04:20:59;64.82;;;26.60;;
72584;SDS011;60618;40.084;32.908;2022-12-10T04:23:26;57.67;;;22.97;;
72584;SDS011;60618;40.084;32.908;2022-12-10T04:25:52;56.10;;;22.98;;
72584;SDS011;60618;40.084;32.908;2022-12-10T04:28:20;42.83;;;17.65;;
72584;SDS011;60618;40.084;32.908;2022-12-10T04:30:46;50.92;;;21.15;;
72584;SDS011;60618;40.084;32.908;2022-12-10T04:33:16;46.53;;;18.98;;
72584;SDS011;60618;40.084;32.908;2022-12-10T04:35:43;47.60;;;19.20;;
72584;SDS011;60618;40.084;32.908;2022-12-10T04:38:13;45.03;;;18.88;;
72584;SDS011;60618;40.084;32.908;2022-12-10T04:40:39;42.75;;;15.32;;
72584;SDS011;60618;40.084;32.908;2022-12-10T04:43:06;49.33;;;20.40;;
72584;SDS011;60618;40.084;32.908;2022-12-10T04:45:34;56.25;;;22.67;;
72584;SDS011;60618;40.084;32.908;2022-12-10T04:48:04;41.37;;;17.17;;
72584;SDS011;60618;40.084;32.908;2022-12-10T04:50:31;38.42;;;15.88;;
72584;SDS011;60618;40.084;32.908;2022-12-10T04:52:58;47.50;;;19.73;;
72584;SDS011;60618;40.084;32.908;2022-12-10T04:55:25;46.28;;;17.02;;
72584;SDS011;60618;40.084;32.908;2022-12-10T04:57:52;36.00;;;14.70;;
72584;SDS011;60618;40.084;32.908;2022-12-10T05:00:19;39.30;;;14.73;;
72584;SDS011;60618;40.084;32.908;2022-12-10T05:02:47;47.92;;;19.67;;
72584;SDS011;60618;40.084;32.908;2022-12-10T05:05:15;43.45;;;17.80;;
72584;SDS011;60618;40.084;32.908;2022-12-10T05:07:42;43.63;;;16.83;;
72584;SDS011;60618;40.084;32.908;2022-12-10T05:10:09;46.25;;;18.00;;
72584;SDS011;60618;40.084;32.908;2022-12-10T05:12:36;51.70;;;21.13;;
72584;SDS011;60618;40.084;32.908;2022-12-10T05:15:03;40.33;;;16.90;;
72584;SDS011;60618;40.084;32.908;2022-12-10T05:17:30;39.33;;;16.50;;
72584;SDS011;60618;40.084;32.908;2022-12-10T05:19:59;37.47;;;15.43;;
72584;SDS011;60618;40.084;32.908;2022-12-10T05:22:26;41.95;;;16.95;;
72584;SDS011;60618;40.084;32.908;2022-12-10T05:24:53;48.73;;;19.20;;
72584;SDS011;60618;40.084;32.908;2022-12-10T05:27:20;48.85;;;18.77;;
72584;SDS011;60618;40.084;32.908;2022-12-10T05:29:47;44.55;;;18.58;;
72584;SDS011;60618;40.084;32.908;2022-12-10T05:32:14;41.83;;;15.98;;
72584;SDS011;60618;40.084;32.908;2022-12-10T05:34:41;39.53;;;15.43;;
72584;SDS011;60618;40.084;32.908;2022-12-10T05:37:08;38.10;;;15.37;;
72584;SDS011;60618;40.084;32.908;2022-12-10T05:39:35;43.05;;;15.50;;
72584;SDS011;60618;40.084;32.908;2022-12-10T05:42:02;39.45;;;15.57;;
72584;SDS011;60618;40.084;32.908;2022-12-10T05:44:29;36.55;;;15.05;;
72584;SDS011;60618;40.084;32.908;2022-12-10T05:46:56;41.15;;;15.85;;
72584;SDS011;60618;40.084;32.908;2022-12-10T05:49:23;48.63;;;17.53;;
72584;SDS011;60618;40.084;32.908;2022-12-10T05:51:50;45.95;;;18.77;;
72584;SDS011;60618;40.084;32.908;2022-12-10T05:54:17;57.25;;;20.20;;
72584;SDS011;60618;40.084;32.908;2022-12-10T05:56:43;52.65;;;19.98;;
72584;SDS011;60618;40.084;32.908;2022-12-10T05:59:10;49.17;;;19.40;;
72584;SDS011;60618;40.084;32.908;2022-12-10T06:01:42;51.37;;;18.93;;
72584;SDS011;60618;40.084;32.908;2022-12-10T06:04:09;48.97;;;19.67;;
72584;SDS011;60618;40.084;32.908;2022-12-10T06:06:37;44.35;;;19.42;;
72584;SDS011;60618;40.084;32.908;2022-12-10T06:09:06;48.15;;;19.80;;
72584;SDS011;60618;40.084;32.908;2022-12-10T06:11:36;50.72;;;20.33;;
72584;SDS011;60618;40.084;32.908;2022-12-10T06:14:03;48.07;;;20.10;;
72584;SDS011;60618;40.084;32.908;2022-12-10T06:16:30;55.70;;;21.02;;
72584;SDS011;60618;40.084;32.908;2022-12-10T06:19:00;60.72;;;21.58;;
72584;SDS011;60618;40.084;32.908;2022-12-10T06:21:28;52.63;;;20.58;;
72584;SDS011;60618;40.084;32.908;2022-12-10T06:23:55;45.63;;;19.25;;
72584;SDS011;60618;40.084;32.908;2022-12-10T06:26:24;50.97;;;19.73;;
72584;SDS011;60618;40.084;32.908;2022-12-10T06:28:52;52.00;;;21.85;;
72584;SDS011;60618;40.084;32.908;2022-12-10T06:31:20;55.67;;;22.38;;
72584;SDS011;60618;40.084;32.908;2022-12-10T06:33:47;57.95;;;23.75;;
72584;SDS011;60618;40.084;32.908;2022-12-10T06:36:15;61.10;;;24.10;;
72584;SDS011;60618;40.084;32.908;2022-12-10T06:38:43;53.57;;;21.17;;
72584;SDS011;60618;40.084;32.908;2022-12-10T06:41:12;59.65;;;23.52;;
72584;SDS011;60618;40.084;32.908;2022-12-10T06:43:40;64.32;;;25.33;;
72584;SDS011;60618;40.084;32.908;2022-12-10T06:46:11;73.97;;;26.13;;
72584;SDS011;60618;40.084;32.908;2022-12-10T06:48:40;73.80;;;26.15;;
72584;SDS011;60618;40.084;32.908;2022-12-10T06:51:08;69.03;;;28.60;;
72584;SDS011;60618;40.084;32.908;2022-12-10T06:53:37;73.03;;;29.55;;
72584;SDS011;60618;40.084;32.908;2022-12-10T06:56:05;106.95;;;40.90;;
72584;SDS011;60618;40.084;32.908;2022-12-10T06:58:34;112.97;;;42.15;;
72584;SDS011;60618;40.084;32.908;2022-12-10T07:01:05;108.05;;;42.30;;
72584;SDS011;60618;40.084;32.908;2022-12-10T07:03:34;105.73;;;41.87;;
72584;SDS011;60618;40.084;32.908;2022-12-10T07:06:02;111.38;;;42.55;;
72584;SDS011;60618;40.084;32.908;2022-12-10T07:08:30;100.10;;;41.40;;
72584;SDS011;60618;40.084;32.908;2022-12-10T07:10:57;82.38;;;35.30;;
72584;SDS011;60618;40.084;32.908;2022-12-10T07:13:24;90.43;;;34.58;;
72584;SDS011;60618;40.084;32.908;2022-12-10T07:15:56;88.53;;;34.83;;
72584;SDS011;60618;40.084;32.908;2022-12-10T07:18:24;94.93;;;38.13;;
72584;SDS011;60618;40.084;32.908;2022-12-10T07:20:51;105.30;;;42.58;;
72584;SDS011;60618;40.084;32.908;2022-12-10T07:23:18;113.55;;;42.45;;
72584;SDS011;60618;40.084;32.908;2022-12-10T07:25:45;107.47;;;43.58;;
72584;SDS011;60618;40.084;32.908;2022-12-10T07:28:12;117.90;;;44.40;;
72584;SDS011;60618;40.084;32.908;2022-12-10T07:30:40;99.30;;;42.92;;
72584;SDS011;60618;40.084;32.908;2022-12-10T07:33:07;116.72;;;46.08;;
72584;SDS011;60618;40.084;32.908;2022-12-10T07:35:34;119.82;;;47.17;;
72584;SDS011;60618;40.084;32.908;2022-12-10T07:38:01;120.05;;;47.13;;
72584;SDS011;60618;40.084;32.908;2022-12-10T07:40:28;114.53;;;46.37;;
72584;SDS011;60618;40.084;32.908;2022-12-10T07:42:55;120.47;;;46.05;;
72584;SDS011;60618;40.084;32.908;2022-12-10T07:45:21;122.82;;;47.45;;
72584;SDS011;60618;40.084;32.908;2022-12-10T07:47:48;127.63;;;50.92;;
72584;SDS011;60618;40.084;32.908;2022-12-10T07:50:15;124.72;;;51.67;;
72584;SDS011;60618;40.084;32.908;2022-12-10T07:52:42;123.00;;;49.40;;
72584;SDS011;60618;40.084;32.908;2022-12-10T07:55:09;124.72;;;51.28;;
72584;SDS011;60618;40.084;32.908;2022-12-10T07:57:36;128.13;;;51.25;;
72584;SDS011;60618;40.084;32.908;2022-12-10T08:00:03;128.73;;;51.40;;
72584;SDS011;60618;40.084;32.908;2022-12-10T08:02:31;126.82;;;52.13;;
72584;SDS011;60618;40.084;32.908;2022-12-10T08:04:58;122.97;;;52.63;;
72584;SDS011;60618;40.084;32.908;2022-12-10T08:07:25;136.88;;;53.97;;
72584;SDS011;60618;40.084;32.908;2022-12-10T08:09:52;141.45;;;53.33;;
72584;SDS011;60618;40.084;32.908;2022-12-10T08:12:19;141.93;;;55.80;;
72584;SDS011;60618;40.084;32.908;2022-12-10T08:14:46;151.10;;;53.97;;
72584;SDS011;60618;40.084;32.908;2022-12-10T08:17:13;122.57;;;46.50;;
72584;SDS011;60618;40.084;32.908;2022-12-10T08:19:40;166.88;;;57.58;;
72584;SDS011;60618;40.084;32.908;2022-12-10T08:22:07;156.80;;;58.40;;
72584;SDS011;60618;40.084;32.908;2022-12-10T08:24:34;159.35;;;55.13;;
72584;SDS011;60618;40.084;32.908;2022-12-10T08:27:01;150.07;;;54.75;;
72584;SDS011;60618;40.084;32.908;2022-12-10T08:29:28;146.80;;;54.13;;
72584;SDS011;60618;40.084;32.908;2022-12-10T08:31:55;135.88;;;53.08;;
72584;SDS011;60618;40.084;32.908;2022-12-10T08:34:22;126.95;;;48.97;;
72584;SDS011;60618;40.084;32.908;2022-12-10T08:36:49;122.38;;;48.45;;
72584;SDS011;60618;40.084;32.908;2022-12-10T08:39:17;112.68;;;46.00;;
72584;SDS011;60618;40.084;32.908;2022-12-10T08:41:44;130.87;;;50.43;;
72584;SDS011;60618;40.084;32.908;2022-12-10T08:44:12;121.40;;;48.65;;
72584;SDS011;60618;40.084;32.908;2022-12-10T08:46:40;127.55;;;46.85;;
72584;SDS011;60618;40.084;32.908;2022-12-10T08:49:07;162.68;;;54.28;;
72584;SDS011;60618;40.084;32.908;2022-12-10T08:51:34;98.82;;;43.17;;
72584;SDS011;60618;40.084;32.908;2022-12-10T08:54:04;130.50;;;50.07;;
72584;SDS011;60618;40.084;32.908;2022-12-10T08:56:31;130.27;;;48.97;;
72584;SDS011;60618;40.084;32.908;2022-12-10T08:58:58;113.28;;;44.83;;
72584;SDS011;60618;40.084;32.908;2022-12-10T09:01:25;102.35;;;41.55;;
72584;SDS011;60618;40.084;32.908;2022-12-10T09:03:53;90.20;;;38.53;;
72584;SDS011;60618;40.084;32.908;2022-12-10T09:06:20;86.80;;;34.77;;
72584;SDS011;60618;40.084;32.908;2022-12-10T09:08:48;93.85;;;35.78;;
72584;SDS011;60618;40.084;32.908;2022-12-10T09:11:17;99.97;;;39.00;;
72584;SDS011;60618;40.084;32.908;2022-12-10T09:13:52;94.32;;;34.92;;
72584;SDS011;60618;40.084;32.908;2022-12-10T09:16:19;97.90;;;35.45;;
72584;SDS011;60618;40.084;32.908;2022-12-10T09:18:47;89.53;;;35.03;;
72584;SDS011;60618;40.084;32.908;2022-12-10T09:21:14;73.88;;;32.25;;
72584;SDS011;60618;40.084;32.908;2022-12-10T09:23:43;68.00;;;27.35;;
72584;SDS011;60618;40.084;32.908;2022-12-10T09:26:13;72.93;;;30.48;;
72584;SDS011;60618;40.084;32.908;2022-12-10T09:28:42;65.38;;;26.38;;
72584;SDS011;60618;40.084;32.908;2022-12-10T09:31:13;56.63;;;24.27;;
72584;SDS011;60618;40.084;32.908;2022-12-10T09:33:46;87.78;;;25.38;;
72584;SDS011;60618;40.084;32.908;2022-12-10T09:36:14;57.20;;;25.33;;
72584;SDS011;60618;40.084;32.908;2022-12-10T09:38:42;56.05;;;25.42;;
72584;SDS011;60618;40.084;32.908;2022-12-10T09:43:46;65.13;;;25.07;;
72584;SDS011;60618;40.084;32.908;2022-12-10T09:52:24;60.67;;;23.33;;
72584;SDS011;60618;40.084;32.908;2022-12-10T09:54:58;64.22;;;23.95;;
72584;SDS011;60618;40.084;32.908;2022-12-10T10:00:41;52.92;;;24.55;;
72584;SDS011;60618;40.084;32.908;2022-12-10T10:03:14;63.42;;;25.95;;
72584;SDS011;60618;40.084;32.908;2022-12-10T10:08:17;54.20;;;22.80;;
72584;SDS011;60618;40.084;32.908;2022-12-10T10:10:58;53.80;;;22.97;;
72584;SDS011;60618;40.084;32.908;2022-12-10T10:13:36;47.97;;;18.95;;
72584;SDS011;60618;40.084;32.908;2022-12-10T10:16:24;51.00;;;22.90;;
72584;SDS011;60618;40.084;32.908;2022-12-10T10:18:57;54.65;;;23.70;;
72584;SDS011;60618;40.084;32.908;2022-12-10T10:21:49;54.53;;;21.90;;
72584;SDS011;60618;40.084;32.908;2022-12-10T10:24:19;54.53;;;22.40;;
72584;SDS011;60618;40.084;32.908;2022-12-10T10:26:48;54.28;;;23.63;;
72584;SDS011;60618;40.084;32.908;2022-12-10T10:29:18;50.65;;;22.45;;
72584;SDS011;60618;40.084;32.908;2022-12-10T10:31:58;52.00;;;22.05;;
72584;SDS011;60618;40.084;32.908;2022-12-10T10:34:45;60.65;;;23.17;;
72584;SDS011;60618;40.084;32.908;2022-12-10T10:37:22;50.57;;;21.47;;
72584;SDS011;60618;40.084;32.908;2022-12-10T10:39:54;58.92;;;22.13;;
72584;SDS011;60618;40.084;32.908;2022-12-10T10:42:27;60.33;;;23.23;;
72584;SDS011;60618;40.084;32.908;2022-12-10T10:45:02;52.28;;;20.13;;
72584;SDS011;60618;40.084;32.908;2022-12-10T10:47:32;55.88;;;24.33;;
72584;SDS011;60618;40.084;32.908;2022-12-10T10:50:02;82.50;;;27.23;;
72584;SDS011;60618;40.084;32.908;2022-12-10T10:52:35;123.80;;;29.63;;
72584;SDS011;60618;40.084;32.908;2022-12-10T10:55:04;65.93;;;25.33;;
72584;SDS011;60618;40.084;32.908;2022-12-10T10:57:35;68.57;;;24.52;;
72584;SDS011;60618;40.084;32.908;2022-12-10T11:00:05;66.63;;;27.27;;
72584;SDS011;60618;40.084;32.908;2022-12-10T11:02:46;80.23;;;26.67;;
72584;SDS011;60618;40.084;32.908;2022-12-10T11:08:01;54.38;;;20.52;;
72584;SDS011;60618;40.084;32.908;2022-12-10T11:10:30;51.42;;;21.92;;
72584;SDS011;60618;40.084;32.908;2022-12-10T11:15:32;44.80;;;19.57;;
72584;SDS011;60618;40.084;32.908;2022-12-10T11:18:02;40.25;;;16.65;;
72584;SDS011;60618;40.084;32.908;2022-12-10T11:20:56;41.85;;;18.00;;
72584;SDS011;60618;40.084;32.908;2022-12-10T11:23:41;43.25;;;19.88;;
72584;SDS011;60618;40.084;32.908;2022-12-10T11:29:16;72.93;;;31.87;;
72584;SDS011;60618;40.084;32.908;2022-12-10T11:37:59;60.35;;;24.02;;
72584;SDS011;60618;40.084;32.908;2022-12-10T11:51:29;66.75;;;26.98;;
72584;SDS011;60618;40.084;32.908;2022-12-10T11:54:48;66.05;;;25.95;;
72584;SDS011;60618;40.084;32.908;2022-12-10T12:00:22;69.53;;;25.55;;
72584;SDS011;60618;40.084;32.908;2022-12-10T12:11:31;60.27;;;24.43;;
72584;SDS011;60618;40.084;32.908;2022-12-10T12:16:44;65.22;;;26.48;;
72584;SDS011;60618;40.084;32.908;2022-12-10T12:19:19;64.70;;;26.67;;
72584;SDS011;60618;40.084;32.908;2022-12-10T12:21:52;60.05;;;28.02;;
72584;SDS011;60618;40.084;32.908;2022-12-10T12:24:32;63.27;;;25.87;;
72584;SDS011;60618;40.084;32.908;2022-12-10T12:27:10;57.05;;;23.60;;
72584;SDS011;60618;40.084;32.908;2022-12-10T12:29:46;63.53;;;24.65;;
72584;SDS011;60618;40.084;32.908;2022-12-10T12:38:19;66.70;;;28.13;;
72584;SDS011;60618;40.084;32.908;2022-12-10T12:41:04;66.63;;;28.60;;
72584;SDS011;60618;40.084;32.908;2022-12-10T12:43:47;64.28;;;28.35;;
72584;SDS011;60618;40.084;32.908;2022-12-10T12:46:30;74.45;;;29.17;;
72584;SDS011;60618;40.084;32.908;2022-12-10T12:49:18;71.78;;;28.92;;
72584;SDS011;60618;40.084;32.908;2022-12-10T12:51:53;57.70;;;26.10;;
72584;SDS011;60618;40.084;32.908;2022-12-10T12:54:26;47.30;;;21.92;;
72584;SDS011;60618;40.084;32.908;2022-12-10T12:57:07;40.38;;;19.63;;
72584;SDS011;60618;40.084;32.908;2022-12-10T13:05:27;57.87;;;25.73;;
72584;SDS011;60618;40.084;32.908;2022-12-10T13:10:51;56.35;;;25.02;;
72584;SDS011;60618;40.084;32.908;2022-12-10T13:13:34;57.30;;;23.95;;
72584;SDS011;60618;40.084;32.908;2022-12-10T13:19:24;45.90;;;20.93;;
72584;SDS011;60618;40.084;32.908;2022-12-10T13:34:44;55.42;;;23.15;;
72584;SDS011;60618;40.084;32.908;2022-12-10T13:39:46;50.08;;;24.45;;
72584;SDS011;60618;40.084;32.908;2022-12-10T13:44:50;42.53;;;20.90;;
72584;SDS011;60618;40.084;32.908;2022-12-10T13:47:52;51.13;;;22.23;;
72584;SDS011;60618;40.084;32.908;2022-12-10T13:53:30;55.00;;;20.88;;
72584;SDS011;60618;40.084;32.908;2022-12-10T14:03:58;75.32;;;30.30;;
72584;SDS011;60618;40.084;32.908;2022-12-10T14:06:40;53.00;;;22.77;;
72584;SDS011;60618;40.084;32.908;2022-12-10T14:09:14;46.00;;;22.17;;
72584;SDS011;60618;40.084;32.908;2022-12-10T14:11:47;44.27;;;20.40;;
72584;SDS011;60618;40.084;32.908;2022-12-10T14:14:34;40.78;;;18.13;;
72584;SDS011;60618;40.084;32.908;2022-12-10T14:17:21;40.95;;;17.95;;
72584;SDS011;60618;40.084;32.908;2022-12-10T14:19:56;36.70;;;17.60;;
72584;SDS011;60618;40.084;32.908;2022-12-10T14:24:58;42.47;;;18.37;;
72584;SDS011;60618;40.084;32.908;2022-12-10T14:27:27;46.97;;;20.95;;
72584;SDS011;60618;40.084;32.908;2022-12-10T14:29:58;38.72;;;18.27;;
72584;SDS011;60618;40.084;32.908;2022-12-10T14:32:32;57.00;;;22.55;;
72584;SDS011;60618;40.084;32.908;2022-12-10T14:35:02;43.58;;;19.67;;
72584;SDS011;60618;40.084;32.908;2022-12-10T14:37:33;46.70;;;21.17;;
72584;SDS011;60618;40.084;32.908;2022-12-10T14:40:05;35.53;;;17.67;;
72584;SDS011;60618;40.084;32.908;2022-12-10T14:42:34;38.75;;;18.40;;
72584;SDS011;60618;40.084;32.908;2022-12-10T14:45:05;38.30;;;16.50;;
72584;SDS011;60618;40.084;32.908;2022-12-10T14:47:36;36.72;;;17.77;;
72584;SDS011;60618;40.084;32.908;2022-12-10T14:50:14;54.47;;;18.93;;
72584;SDS011;60618;40.084;32.908;2022-12-10T14:52:49;41.63;;;16.45;;
72584;SDS011;60618;40.084;32.908;2022-12-10T14:55:19;37.05;;;15.70;;
72584;SDS011;60618;40.084;32.908;2022-12-10T14:57:51;34.05;;;15.43;;
72584;SDS011;60618;40.084;32.908;2022-12-10T15:00:23;38.22;;;14.38;;
72584;SDS011;60618;40.084;32.908;2022-12-10T15:02:51;39.20;;;15.40;;
72584;SDS011;60618;40.084;32.908;2022-12-10T15:05:27;38.70;;;15.35;;
72584;SDS011;60618;40.084;32.908;2022-12-10T15:07:58;40.13;;;17.75;;
72584;SDS011;60618;40.084;32.908;2022-12-10T15:10:50;40.53;;;16.40;;
72584;SDS011;60618;40.084;32.908;2022-12-10T15:16:04;61.90;;;35.33;;
72584;SDS011;60618;40.084;32.908;2022-12-10T15:18:37;73.45;;;41.60;;
72584;SDS011;60618;40.084;32.908;2022-12-10T15:21:13;38.92;;;18.13;;
72584;SDS011;60618;40.084;32.908;2022-12-10T15:23:44;40.78;;;18.25;;
72584;SDS011;60618;40.084;32.908;2022-12-10T15:26:21;42.85;;;18.50;;
72584;SDS011;60618;40.084;32.908;2022-12-10T15:28:51;31.57;;;14.20;;
72584;SDS011;60618;40.084;32.908;2022-12-10T15:31:47;39.28;;;17.30;;
72584;SDS011;60618;40.084;32.908;2022-12-10T15:34:15;33.22;;;14.82;;
72584;SDS011;60618;40.084;32.908;2022-12-10T15:36:52;36.88;;;16.50;;
72584;SDS011;60618;40.084;32.908;2022-12-10T15:39:26;42.97;;;16.23;;
72584;SDS011;60618;40.084;32.908;2022-12-10T15:41:56;41.23;;;16.13;;
72584;SDS011;60618;40.084;32.908;2022-12-10T15:49:36;32.15;;;15.10;;
72584;SDS011;60618;40.084;32.908;2022-12-10T15:52:03;31.95;;;13.23;;
72584;SDS011;60618;40.084;32.908;2022-12-10T15:54:38;34.50;;;13.83;;
72584;SDS011;60618;40.084;32.908;2022-12-10T15:57:13;31.40;;;13.85;;
72584;SDS011;60618;40.084;32.908;2022-12-10T15:59:41;31.52;;;14.90;;
72584;SDS011;60618;40.084;32.908;2022-12-10T16:05:10;30.02;;;14.38;;
72584;SDS011;60618;40.084;32.908;2022-12-10T16:08:01;30.70;;;13.63;;
72584;SDS011;60618;40.084;32.908;2022-12-10T16:10:51;30.08;;;13.85;;
72584;SDS011;60618;40.084;32.908;2022-12-10T16:13:22;29.40;;;14.27;;
72584;SDS011;60618;40.084;32.908;2022-12-10T16:15:53;28.13;;;13.50;;
72584;SDS011;60618;40.084;32.908;2022-12-10T16:18:26;31.08;;;14.57;;
72584;SDS011;60618;40.084;32.908;2022-12-10T16:20:59;49.00;;;21.73;;
72584;SDS011;60618;40.084;32.908;2022-12-10T16:23:26;46.72;;;19.25;;
72584;SDS011;60618;40.084;32.908;2022-12-10T16:25:55;70.95;;;35.05;;
72584;SDS011;60618;40.084;32.908;2022-12-10T16:28:25;39.22;;;17.55;;
72584;SDS011;60618;40.084;32.908;2022-12-10T16:30:57;44.25;;;18.27;;
72584;SDS011;60618;40.084;32.908;2022-12-10T16:33:25;34.07;;;14.40;;
72584;SDS011;60618;40.084;32.908;2022-12-10T16:35:53;39.72;;;16.20;;
72584;SDS011;60618;40.084;32.908;2022-12-10T16:38:22;39.78;;;17.38;;
72584;SDS011;60618;40.084;32.908;2022-12-10T16:40:49;48.17;;;19.73;;